createdAt,value
2019-05-23T00:01:58.287Z,40.07
2019-05-23T00:04:35.698Z,40.57
2019-05-23T00:07:07.127Z,35.57
2019-05-23T00:09:36.692Z,44.60
2019-05-23T00:12:13.883Z,38.60
2019-05-23T00:14:53.543Z,36.33
2019-05-23T00:17:24.201Z,35.73
2019-05-23T00:19:53.720Z,35.57
2019-05-23T00:22:23.400Z,34.30
2019-05-23T00:24:53.668Z,37.53
2019-05-23T00:27:23.900Z,36.77
2019-05-23T00:29:54.764Z,36.17
2019-05-23T00:32:25.957Z,35.23
2019-05-23T00:34:56.254Z,33.27
2019-05-23T00:37:28.636Z,34.80
2019-05-23T00:39:58.925Z,34.63
2019-05-23T00:42:29.707Z,33.90
2019-05-23T00:45:00.970Z,40.93
2019-05-23T00:47:30.828Z,34.47
2019-05-23T00:50:01.252Z,31.13
2019-05-23T00:52:31.036Z,36.00
2019-05-23T00:55:01.152Z,37.10
2019-05-23T00:57:31.499Z,34.83
2019-05-23T01:00:02.344Z,39.43
2019-05-23T01:02:33.695Z,39.23
2019-05-23T01:05:04.462Z,44.23
2019-05-23T01:07:35.845Z,37.00
2019-05-23T01:10:08.710Z,32.37
2019-05-23T01:12:38.477Z,33.93
2019-05-23T01:15:10.749Z,51.37
2019-05-23T01:17:40.830Z,38.40
2019-05-23T01:20:30.015Z,41.77
2019-05-23T01:23:01.337Z,38.00
2019-05-23T01:25:33.040Z,39.40
2019-05-23T01:28:02.896Z,36.10
2019-05-23T01:30:37.254Z,35.17
2019-05-23T01:33:07.072Z,38.87
2019-05-23T01:35:37.326Z,36.40
2019-05-23T01:38:07.898Z,37.67
2019-05-23T01:40:37.720Z,37.33
2019-05-23T01:43:07.941Z,36.17
2019-05-23T01:45:38.334Z,40.70
2019-05-23T01:48:09.720Z,38.10
2019-05-23T01:50:39.221Z,42.37
2019-05-23T01:53:10.020Z,43.47
2019-05-23T01:55:40.856Z,41.40
2019-05-23T01:58:10.706Z,39.47
2019-05-23T02:00:40.377Z,44.90
2019-05-23T02:03:10.453Z,48.97
2019-05-23T02:05:41.361Z,43.20
2019-05-23T02:08:12.758Z,49.00
2019-05-23T02:10:43.668Z,48.33
2019-05-23T02:13:13.709Z,43.57
2019-05-23T02:15:44.385Z,50.87
2019-05-23T02:18:15.995Z,49.27
2019-05-23T02:20:46.090Z,45.00
2019-05-23T02:23:17.982Z,48.07
2019-05-23T02:25:48.719Z,44.20
2019-05-23T02:28:19.052Z,48.77
2019-05-23T02:30:50.658Z,43.17
2019-05-23T02:33:20.229Z,43.90
2019-05-23T02:35:49.834Z,45.90
2019-05-23T02:38:21.082Z,56.10
2019-05-23T02:40:52.247Z,51.10
2019-05-23T02:43:26.420Z,48.47
2019-05-23T02:46:03.975Z,47.83
2019-05-23T02:48:46.069Z,49.23
2019-05-23T02:51:27.508Z,41.67
2019-05-23T02:53:58.753Z,45.00
2019-05-23T02:56:31.132Z,44.93
2019-05-23T02:59:20.055Z,43.37
2019-05-23T03:02:02.939Z,50.87
2019-05-23T03:04:34.128Z,50.87
2019-05-23T03:07:03.770Z,44.63
2019-05-23T03:09:34.201Z,44.17
2019-05-23T03:12:07.020Z,45.97
2019-05-23T03:14:38.950Z,47.00
2019-05-23T03:17:11.950Z,46.63
2019-05-23T03:19:54.061Z,42.90
2019-05-23T03:22:34.303Z,43.40
2019-05-23T03:25:23.534Z,49.50
2019-05-23T03:27:53.080Z,46.33
2019-05-23T03:30:28.784Z,47.50
2019-05-23T03:33:00.242Z,45.70
2019-05-23T03:35:37.139Z,42.47
2019-05-23T03:38:08.766Z,52.37
2019-05-23T03:40:38.277Z,42.37
2019-05-23T03:43:09.150Z,47.70
2019-05-23T03:45:50.676Z,48.00
2019-05-23T03:48:21.302Z,54.30
2019-05-23T03:50:52.210Z,40.63
2019-05-23T03:53:23.661Z,46.30
2019-05-23T03:55:53.813Z,45.30
2019-05-23T03:58:23.693Z,45.37
2019-05-23T04:00:55.619Z,44.47
2019-05-23T04:03:26.575Z,46.27
2019-05-23T04:05:56.822Z,43.63
2019-05-23T04:08:26.861Z,48.13
2019-05-23T04:10:57.602Z,43.70
2019-05-23T04:13:27.339Z,49.87
2019-05-23T04:15:57.106Z,42.40
2019-05-23T04:18:26.805Z,46.97
2019-05-23T04:20:56.769Z,42.33
2019-05-23T04:23:26.823Z,48.63
2019-05-23T04:25:56.521Z,46.23
2019-05-23T04:28:27.011Z,45.53
2019-05-23T04:30:57.812Z,44.67
2019-05-23T04:33:27.334Z,43.90
2019-05-23T04:35:57.121Z,40.83
2019-05-23T04:38:26.911Z,44.10
2019-05-23T04:40:56.446Z,44.77
2019-05-23T04:43:26.147Z,39.07
2019-05-23T04:45:56.097Z,43.43
2019-05-23T04:48:25.918Z,40.90
2019-05-23T04:50:59.741Z,39.87
2019-05-23T04:53:27.762Z,38.93
2019-05-23T04:55:57.898Z,42.53
2019-05-23T04:58:27.520Z,40.20
2019-05-23T05:00:57.360Z,46.60
2019-05-23T05:03:27.614Z,41.07
2019-05-23T05:05:57.191Z,39.97
2019-05-23T05:08:27.834Z,39.67
2019-05-23T05:10:58.096Z,35.30
2019-05-23T05:13:28.219Z,39.90
2019-05-23T05:15:57.729Z,37.47
2019-05-23T05:18:28.994Z,39.00
2019-05-23T05:20:58.620Z,34.37
2019-05-23T05:23:28.170Z,35.80
2019-05-23T05:25:57.699Z,38.50
2019-05-23T05:28:27.262Z,38.50
2019-05-23T05:30:56.779Z,35.47
2019-05-23T05:33:26.573Z,38.67
2019-05-23T05:35:56.248Z,35.50
2019-05-23T05:38:28.710Z,35.57
2019-05-23T05:40:57.923Z,35.13
2019-05-23T05:43:27.875Z,40.53
2019-05-23T05:45:58.174Z,40.90
2019-05-23T05:48:29.384Z,49.83
2019-05-23T05:50:59.217Z,41.73
2019-05-23T05:53:28.801Z,38.00
2019-05-23T05:55:58.331Z,36.77
2019-05-23T05:58:28.899Z,44.10
2019-05-23T06:01:02.787Z,54.97
2019-05-23T06:03:32.852Z,39.23
2019-05-23T06:06:19.822Z,36.60
2019-05-23T06:08:54.003Z,41.77
2019-05-23T06:11:23.579Z,41.47
2019-05-23T06:13:53.400Z,50.13
2019-05-23T06:16:23.138Z,43.03
2019-05-23T06:18:52.850Z,41.67
2019-05-23T06:21:24.151Z,45.83
2019-05-23T06:23:53.769Z,46.50
2019-05-23T06:26:23.570Z,48.43
2019-05-23T06:28:53.649Z,50.47
2019-05-23T06:31:23.954Z,45.30
2019-05-23T06:33:53.699Z,46.30
2019-05-23T06:36:23.557Z,54.63
2019-05-23T06:38:53.247Z,45.80
2019-05-23T06:41:23.466Z,47.33
2019-05-23T06:43:53.028Z,48.43
2019-05-23T06:46:22.605Z,53.63
2019-05-23T06:48:52.150Z,43.57
2019-05-23T06:51:22.112Z,51.53
2019-05-23T06:53:53.820Z,48.33
2019-05-23T06:56:23.555Z,50.13
2019-05-23T06:58:54.086Z,46.43
2019-05-23T07:01:23.997Z,47.93
2019-05-23T07:03:53.897Z,47.33
2019-05-23T07:06:24.938Z,42.30
2019-05-23T07:08:54.499Z,41.70
2019-05-23T07:11:24.412Z,50.10
2019-05-23T07:13:54.235Z,46.30
2019-05-23T07:16:23.839Z,45.23
2019-05-23T07:18:54.306Z,57.77
2019-05-23T07:21:23.975Z,48.47
2019-05-23T07:23:53.644Z,53.37
2019-05-23T07:26:23.261Z,54.70
2019-05-23T07:28:54.398Z,56.30
2019-05-23T07:31:24.048Z,45.17
2019-05-23T07:34:01.947Z,45.37
2019-05-23T07:36:25.155Z,44.93
2019-05-23T07:38:54.805Z,43.23
2019-05-23T07:41:24.493Z,46.97
2019-05-23T07:43:54.185Z,42.27
2019-05-23T07:46:23.995Z,37.27
2019-05-23T07:48:53.802Z,40.47
2019-05-23T07:51:23.365Z,34.23
2019-05-23T07:53:54.568Z,42.63
2019-05-23T07:56:25.809Z,34.00
2019-05-23T07:58:55.389Z,37.07
2019-05-23T08:01:26.680Z,36.00
2019-05-23T08:03:57.476Z,39.17
2019-05-23T08:06:27.664Z,31.57
2019-05-23T08:08:58.577Z,35.20
2019-05-23T08:11:28.154Z,33.80
2019-05-23T08:13:58.918Z,30.70
2019-05-23T08:16:29.066Z,31.83
2019-05-23T08:18:58.575Z,33.57
2019-05-23T08:21:28.742Z,34.00
2019-05-23T08:23:58.333Z,38.20
2019-05-23T08:26:28.028Z,41.13
2019-05-23T08:29:24.018Z,33.47
2019-05-23T08:31:29.581Z,39.10
2019-05-23T08:34:00.072Z,30.20
2019-05-23T08:36:30.319Z,32.97
2019-05-23T08:39:01.061Z,33.03
2019-05-23T08:41:30.630Z,25.77
2019-05-23T08:44:00.148Z,24.63
2019-05-23T08:46:29.681Z,30.50
2019-05-23T08:49:00.672Z,40.17
2019-05-23T08:51:30.403Z,33.43
2019-05-23T08:54:00.254Z,25.63
2019-05-23T08:56:30.309Z,24.20
2019-05-23T08:59:00.062Z,24.67
2019-05-23T09:01:30.046Z,25.70
2019-05-23T09:03:59.948Z,23.73
2019-05-23T09:06:29.753Z,27.67
2019-05-23T09:08:59.858Z,30.97
2019-05-23T09:11:29.943Z,19.97
2019-05-23T09:13:59.613Z,14.83
2019-05-23T09:16:33.115Z,19.47
2019-05-23T09:19:00.948Z,22.40
2019-05-23T09:21:30.487Z,21.63
2019-05-23T09:24:00.025Z,19.93
2019-05-23T09:26:30.300Z,20.40
2019-05-23T09:29:00.500Z,23.10
2019-05-23T09:31:31.292Z,24.23
2019-05-23T09:34:00.944Z,20.20
2019-05-23T09:36:30.639Z,19.77
2019-05-23T09:39:00.171Z,18.73
2019-05-23T09:41:29.773Z,19.43
2019-05-23T09:43:59.537Z,21.43
2019-05-23T09:46:29.065Z,22.73
2019-05-23T09:48:59.223Z,20.20
2019-05-23T09:51:28.771Z,16.20
2019-05-23T09:53:59.438Z,16.77
2019-05-23T09:56:29.301Z,14.63
2019-05-23T09:58:58.836Z,15.90
2019-05-23T10:01:28.531Z,14.70
2019-05-23T10:03:58.146Z,17.40
2019-05-23T10:06:27.917Z,13.77
2019-05-23T10:08:57.578Z,18.53
2019-05-23T10:11:27.188Z,18.30
2019-05-23T10:13:57.078Z,16.80
2019-05-23T10:16:27.044Z,13.47
2019-05-23T10:18:56.607Z,13.83
2019-05-23T10:21:26.602Z,17.73
2019-05-23T10:23:56.143Z,20.13
2019-05-23T10:26:25.650Z,16.00
2019-05-23T10:28:55.223Z,13.53
2019-05-23T10:31:25.546Z,14.07
2019-05-23T10:33:55.366Z,14.97
2019-05-23T10:36:25.079Z,16.23
2019-05-23T10:38:54.622Z,16.53
2019-05-23T10:41:24.419Z,17.47
2019-05-23T10:43:54.121Z,19.37
2019-05-23T10:46:23.913Z,13.50
2019-05-23T10:48:54.041Z,20.53
2019-05-23T10:51:24.521Z,17.37
2019-05-23T10:53:54.334Z,14.63
2019-05-23T10:56:24.365Z,25.17
2019-05-23T10:58:54.359Z,18.67
2019-05-23T11:01:24.644Z,13.70
2019-05-23T11:03:54.412Z,13.00
2019-05-23T11:06:24.063Z,13.70
2019-05-23T11:08:53.975Z,13.73
2019-05-23T11:11:23.561Z,18.63
2019-05-23T11:13:53.539Z,16.13
2019-05-23T11:16:23.614Z,12.80
2019-05-23T11:18:53.285Z,14.67
2019-05-23T11:21:23.482Z,15.43
2019-05-23T11:23:54.253Z,13.13
2019-05-23T11:26:23.948Z,11.40
2019-05-23T11:28:53.618Z,10.40
2019-05-23T11:31:23.327Z,11.80
2019-05-23T11:33:53.049Z,19.93
2019-05-23T11:36:34.666Z,10.87
2019-05-23T11:38:55.137Z,10.60
2019-05-23T11:41:24.898Z,15.50
2019-05-23T11:43:54.448Z,13.17
2019-05-23T11:46:25.789Z,13.50
2019-05-23T11:48:55.576Z,14.90
2019-05-23T11:51:26.377Z,17.13
2019-05-23T11:54:07.522Z,16.77
2019-05-23T11:56:27.678Z,11.10
2019-05-23T11:59:01.133Z,14.00
2019-05-23T12:01:33.006Z,11.03
2019-05-23T12:04:04.310Z,13.23
2019-05-23T12:06:53.657Z,12.30
2019-05-23T12:09:15.009Z,8.73
2019-05-23T12:11:44.718Z,16.90
2019-05-23T12:14:14.360Z,10.20
2019-05-23T12:16:43.905Z,9.70
2019-05-23T12:19:14.070Z,13.90
2019-05-23T12:21:43.691Z,12.90
2019-05-23T12:24:14.370Z,14.17
2019-05-23T12:26:43.975Z,13.43
2019-05-23T12:29:13.985Z,13.23
2019-05-23T12:31:48.623Z,8.70
2019-05-23T12:34:15.404Z,8.60
2019-05-23T12:36:45.022Z,14.53
2019-05-23T12:39:14.794Z,14.03
2019-05-23T12:41:44.488Z,11.30
2019-05-23T12:44:17.359Z,14.83
2019-05-23T12:46:45.429Z,8.70
2019-05-23T12:49:25.646Z,6.43
2019-05-23T12:51:56.670Z,11.93
2019-05-23T12:54:26.694Z,8.87
2019-05-23T12:56:56.994Z,10.20
2019-05-23T12:59:26.898Z,13.90
2019-05-23T13:01:58.042Z,21.17
2019-05-23T13:04:27.983Z,13.67
2019-05-23T13:06:57.525Z,12.63
2019-05-23T13:09:27.413Z,7.43
2019-05-23T13:11:57.811Z,5.93
2019-05-23T13:14:27.810Z,7.70
2019-05-23T13:17:00.791Z,11.40
2019-05-23T13:19:28.760Z,7.87
2019-05-23T13:21:58.769Z,8.40
2019-05-23T13:24:29.409Z,9.50
2019-05-23T13:26:59.030Z,13.80
2019-05-23T13:29:28.825Z,12.80
2019-05-23T13:31:59.170Z,11.10
2019-05-23T13:34:28.674Z,8.00
2019-05-23T13:36:58.279Z,11.87
2019-05-23T13:39:27.956Z,35.50
2019-05-23T13:41:57.896Z,21.57
2019-05-23T13:44:33.520Z,6.20
2019-05-23T13:46:59.223Z,11.57
2019-05-23T13:49:29.729Z,8.00
2019-05-23T13:51:59.403Z,9.17
2019-05-23T13:54:29.136Z,8.40
2019-05-23T13:56:59.371Z,11.87
2019-05-23T13:59:29.653Z,9.87
2019-05-23T14:01:59.479Z,10.03
2019-05-23T14:04:29.156Z,6.70
2019-05-23T14:06:58.905Z,6.23
2019-05-23T14:09:28.867Z,6.73
2019-05-23T14:12:20.098Z,7.30
2019-05-23T14:14:30.811Z,8.80
2019-05-23T14:17:05.236Z,11.17
2019-05-23T14:19:35.673Z,11.80
2019-05-23T14:22:05.805Z,12.20
2019-05-23T14:24:37.917Z,8.53
2019-05-23T14:27:08.485Z,5.37
2019-05-23T14:29:38.362Z,4.07
2019-05-23T14:32:12.577Z,8.73
2019-05-23T14:34:42.369Z,10.57
2019-05-23T14:37:13.919Z,6.53
2019-05-23T14:39:44.622Z,9.17
2019-05-23T14:42:27.805Z,15.20
2019-05-23T14:44:57.462Z,7.10
2019-05-23T14:47:31.767Z,15.93
2019-05-23T14:50:09.123Z,5.00
2019-05-23T14:52:49.774Z,4.33
2019-05-23T14:55:19.533Z,5.93
2019-05-23T14:57:49.252Z,6.73
2019-05-23T15:00:19.564Z,12.00
2019-05-23T15:02:49.159Z,7.73
2019-05-23T15:05:18.776Z,7.60
2019-05-23T15:07:48.422Z,4.20
2019-05-23T15:10:19.986Z,5.90
2019-05-23T15:12:51.548Z,4.00
2019-05-23T15:15:21.124Z,10.67
2019-05-23T15:17:50.835Z,7.50
2019-05-23T15:20:20.629Z,7.07
2019-05-23T15:22:52.310Z,6.93
2019-05-23T15:25:22.187Z,19.00
2019-05-23T15:27:51.751Z,5.10
2019-05-23T15:30:22.453Z,6.30
2019-05-23T15:32:52.059Z,5.57
2019-05-23T15:35:21.857Z,4.33
2019-05-23T15:37:51.681Z,8.17
2019-05-23T15:40:22.381Z,8.50
2019-05-23T15:42:52.343Z,10.43
2019-05-23T15:45:22.205Z,8.30
2019-05-23T15:47:51.758Z,7.63
2019-05-23T15:50:25.867Z,7.40
2019-05-23T15:53:06.963Z,7.43
2019-05-23T15:55:41.097Z,6.00
2019-05-23T15:58:12.560Z,6.47
2019-05-23T16:00:49.694Z,3.47
2019-05-23T16:03:32.715Z,4.83
2019-05-23T16:06:02.550Z,5.13
2019-05-23T16:08:32.293Z,13.93
2019-05-23T16:11:03.561Z,12.17
2019-05-23T16:13:33.588Z,5.30
2019-05-23T16:16:04.469Z,9.47
2019-05-23T16:18:34.589Z,9.30
2019-05-23T16:21:04.347Z,90.60
2019-05-23T16:23:33.961Z,4.90
2019-05-23T16:26:03.942Z,7.13
2019-05-23T16:28:33.630Z,11.03
2019-05-23T16:31:03.187Z,6.50
2019-05-23T16:33:33.248Z,6.37
2019-05-23T16:36:03.010Z,21.87
2019-05-23T16:38:32.547Z,8.43
2019-05-23T16:41:02.104Z,4.07
2019-05-23T16:43:31.724Z,4.40
2019-05-23T16:46:02.038Z,11.73
2019-05-23T16:48:32.077Z,20.40
2019-05-23T16:51:01.829Z,9.03
2019-05-23T16:53:35.792Z,20.53
2019-05-23T16:56:09.529Z,14.10
2019-05-23T16:58:52.594Z,13.00
2019-05-23T17:01:26.253Z,12.83
2019-05-23T17:04:03.427Z,12.03
2019-05-23T17:06:38.715Z,8.10
2019-05-23T17:09:19.209Z,9.10
2019-05-23T17:11:59.504Z,12.30
2019-05-23T17:14:33.742Z,7.50
2019-05-23T17:17:36.438Z,10.83
2019-05-23T17:19:58.420Z,7.27
2019-05-23T17:22:38.629Z,7.70
2019-05-23T17:25:12.600Z,10.70
2019-05-23T17:27:56.412Z,7.50
2019-05-23T17:30:27.529Z,12.97
2019-05-23T17:32:57.057Z,8.50
2019-05-23T17:35:26.660Z,11.27
2019-05-23T17:37:57.222Z,10.67
2019-05-23T17:40:27.066Z,12.30
2019-05-23T17:42:56.760Z,17.50
2019-05-23T17:45:26.485Z,16.93
2019-05-23T17:47:57.744Z,10.30
2019-05-23T17:50:28.744Z,12.10
2019-05-23T17:52:59.441Z,16.53
2019-05-23T17:55:31.039Z,21.17
2019-05-23T17:58:00.550Z,21.17
2019-05-23T18:00:31.766Z,17.00
2019-05-23T18:03:01.289Z,21.03
2019-05-23T18:05:31.245Z,29.77
2019-05-23T18:08:02.899Z,24.60
2019-05-23T18:10:43.756Z,17.13
2019-05-23T18:13:04.970Z,16.23
2019-05-23T18:15:35.703Z,18.90
2019-05-23T18:18:05.934Z,18.00
2019-05-23T18:20:37.193Z,17.50
2019-05-23T18:23:07.227Z,21.40
2019-05-23T18:25:37.152Z,17.37
2019-05-23T18:28:08.045Z,12.83
2019-05-23T18:30:39.195Z,13.90
2019-05-23T18:33:10.546Z,12.47
2019-05-23T18:35:40.200Z,10.30
2019-05-23T18:38:10.000Z,7.70
2019-05-23T18:40:39.702Z,8.30
2019-05-23T18:43:09.532Z,6.50
2019-05-23T18:45:41.300Z,10.57
2019-05-23T18:48:11.997Z,4.10
2019-05-23T18:50:41.958Z,3.40
2019-05-23T18:53:12.908Z,4.30
2019-05-23T18:55:42.438Z,2.80
2019-05-23T18:58:12.054Z,4.60
2019-05-23T19:01:01.072Z,5.97
2019-05-23T19:03:31.350Z,3.73
2019-05-23T19:06:01.072Z,5.10
2019-05-23T19:08:31.089Z,3.50
2019-05-23T19:11:00.846Z,3.80
2019-05-23T19:13:30.475Z,5.20
2019-05-23T19:15:59.992Z,3.60
2019-05-23T19:18:29.871Z,3.30
2019-05-23T19:21:00.600Z,6.90
2019-05-23T19:23:30.455Z,3.07
2019-05-23T19:26:00.961Z,5.63
2019-05-23T19:28:30.848Z,2.87
2019-05-23T19:31:00.875Z,2.77
2019-05-23T19:33:30.642Z,4.50
2019-05-23T19:36:00.396Z,3.33
2019-05-23T19:38:30.060Z,3.03
2019-05-23T19:40:59.625Z,8.53
2019-05-23T19:43:29.222Z,6.47
2019-05-23T19:45:58.883Z,16.03
2019-05-23T19:48:28.557Z,11.20
2019-05-23T19:50:58.559Z,3.37
2019-05-23T19:53:28.779Z,7.10
2019-05-23T19:55:58.491Z,12.80
2019-05-23T19:58:28.374Z,4.20
2019-05-23T20:01:00.518Z,4.40
2019-05-23T20:03:32.719Z,7.10
2019-05-23T20:06:02.166Z,4.97
2019-05-23T20:08:32.096Z,9.73
2019-05-23T20:11:03.158Z,27.40
2019-05-23T20:13:32.711Z,14.93
2019-05-23T20:16:02.663Z,12.73
2019-05-23T20:18:32.296Z,5.90
2019-05-23T20:21:02.262Z,11.80
2019-05-23T20:23:31.918Z,5.30
2019-05-23T20:26:01.444Z,14.83
2019-05-23T20:28:31.221Z,4.90
2019-05-23T20:31:01.200Z,6.23
2019-05-23T20:33:30.707Z,3.20
2019-05-23T20:36:02.023Z,3.43
2019-05-23T20:38:32.581Z,5.50
2019-05-23T20:41:02.106Z,4.77
2019-05-23T20:43:31.693Z,3.37
2019-05-23T20:46:04.062Z,8.10
2019-05-23T20:48:34.041Z,4.43
2019-05-23T20:51:03.999Z,6.20
2019-05-23T20:53:33.522Z,6.77
2019-05-23T20:56:03.190Z,3.60
2019-05-23T20:58:32.730Z,3.90
2019-05-23T21:01:06.624Z,5.93
2019-05-23T21:03:36.487Z,12.83
2019-05-23T21:06:07.207Z,7.33
2019-05-23T21:08:37.233Z,6.10
2019-05-23T21:11:06.782Z,11.33
2019-05-23T21:13:36.446Z,6.80
2019-05-23T21:16:06.406Z,6.17
2019-05-23T21:18:35.928Z,5.40
2019-05-23T21:21:06.049Z,6.03
2019-05-23T21:23:35.951Z,4.00
2019-05-23T21:26:06.484Z,9.00
2019-05-23T21:28:36.169Z,4.30
2019-05-23T21:31:07.470Z,3.93
2019-05-23T21:33:37.266Z,8.47
2019-05-23T21:36:06.906Z,6.93
2019-05-23T21:38:36.424Z,8.40
2019-05-23T21:41:06.191Z,9.30
2019-05-23T21:43:35.757Z,6.67
2019-05-23T21:46:05.522Z,4.77
2019-05-23T21:48:35.147Z,7.87
2019-05-23T21:51:04.682Z,4.80
2019-05-23T21:53:35.167Z,9.00
2019-05-23T21:56:04.691Z,10.80
2019-05-23T21:58:34.303Z,6.20
2019-05-23T22:04:05.947Z,5.10
2019-05-23T22:06:37.088Z,14.07
2019-05-23T22:09:09.321Z,8.17
2019-05-23T22:11:38.852Z,8.60
2019-05-23T22:14:08.358Z,12.17
2019-05-23T22:16:38.791Z,12.33
2019-05-23T22:19:10.154Z,8.27
2019-05-23T22:21:39.785Z,9.13
2019-05-23T22:24:09.675Z,8.77
2019-05-23T22:26:39.173Z,8.57
2019-05-23T22:29:08.882Z,9.00
2019-05-23T22:31:38.540Z,5.70
2019-05-23T22:34:12.670Z,5.73
2019-05-23T22:36:42.220Z,6.33
2019-05-23T22:39:11.762Z,10.40
2019-05-23T22:41:41.825Z,7.80
2019-05-23T22:44:11.711Z,13.20
2019-05-23T22:46:41.982Z,39.87
2019-05-23T22:49:11.788Z,14.93
2019-05-23T22:51:41.328Z,10.87
2019-05-23T22:54:10.945Z,6.77
2019-05-23T22:56:40.519Z,7.50
2019-05-23T22:59:10.068Z,7.07
2019-05-23T23:01:39.713Z,8.80
2019-05-23T23:04:09.804Z,7.07
2019-05-23T23:06:39.449Z,7.00
2019-05-23T23:09:09.033Z,7.17
2019-05-23T23:11:38.564Z,6.50
2019-05-23T23:14:08.444Z,6.93
2019-05-23T23:16:38.132Z,8.53
2019-05-23T23:19:07.814Z,7.60
2019-05-23T23:21:37.690Z,10.27
2019-05-23T23:24:07.263Z,17.07
2019-05-23T23:26:36.926Z,17.17
2019-05-23T23:29:06.664Z,11.87
2019-05-23T23:31:36.197Z,14.43
2019-05-23T23:34:05.699Z,10.60
2019-05-23T23:36:35.220Z,7.20
2019-05-23T23:39:06.716Z,6.30
2019-05-23T23:41:36.277Z,8.70
2019-05-23T23:44:08.693Z,11.20
2019-05-23T23:46:56.454Z,5.97
2019-05-23T23:49:43.878Z,7.50
2019-05-23T23:52:31.239Z,7.83
2019-05-23T23:55:19.161Z,7.50
2019-05-23T23:58:00.067Z,11.83
